sensor_id;sensor_type;location;lat;lon;timestamp;temperature;humidity
15013;DHT22;7603;49.432;11.418;2023-05-29T00:01:12;10.80;98.50
15013;DHT22;7603;49.432;11.418;2023-05-29T00:03:38;10.80;98.70
15013;DHT22;7603;49.432;11.418;2023-05-29T00:06:03;10.80;98.50
15013;DHT22;7603;49.432;11.418;2023-05-29T00:08:31;10.80;98.50
15013;DHT22;7603;49.432;11.418;2023-05-29T00:10:56;10.80;98.60
15013;DHT22;7603;49.432;11.418;2023-05-29T00:13:22;10.80;98.10
15013;DHT22;7603;49.432;11.418;2023-05-29T00:15:48;10.80;97.90
15013;DHT22;7603;49.432;11.418;2023-05-29T00:18:14;10.80;97.80
15013;DHT22;7603;49.432;11.418;2023-05-29T00:20:39;10.90;97.40
15013;DHT22;7603;49.432;11.418;2023-05-29T00:23:05;10.80;97.30
15013;DHT22;7603;49.432;11.418;2023-05-29T00:25:32;10.80;97.20
15013;DHT22;7603;49.432;11.418;2023-05-29T00:27:58;10.80;96.90
15013;DHT22;7603;49.432;11.418;2023-05-29T00:30:24;10.80;96.70
15013;DHT22;7603;49.432;11.418;2023-05-29T00:32:50;10.90;96.50
15013;DHT22;7603;49.432;11.418;2023-05-29T00:35:17;10.90;96.30
15013;DHT22;7603;49.432;11.418;2023-05-29T00:37:43;10.90;96.20
15013;DHT22;7603;49.432;11.418;2023-05-29T00:40:09;10.90;96.10
15013;DHT22;7603;49.432;11.418;2023-05-29T00:42:35;10.90;96.10
15013;DHT22;7603;49.432;11.418;2023-05-29T00:45:00;10.90;96.00
15013;DHT22;7603;49.432;11.418;2023-05-29T00:47:26;11.00;96.00
15013;DHT22;7603;49.432;11.418;2023-05-29T00:49:52;10.90;96.10
15013;DHT22;7603;49.432;11.418;2023-05-29T00:52:19;10.90;95.80
15013;DHT22;7603;49.432;11.418;2023-05-29T00:54:45;11.00;95.80
15013;DHT22;7603;49.432;11.418;2023-05-29T00:57:12;10.90;95.60
15013;DHT22;7603;49.432;11.418;2023-05-29T00:59:39;10.90;95.50
15013;DHT22;7603;49.432;11.418;2023-05-29T01:02:05;10.90;95.70
15013;DHT22;7603;49.432;11.418;2023-05-29T01:04:31;11.00;95.50
15013;DHT22;7603;49.432;11.418;2023-05-29T01:07:02;11.00;96.00
15013;DHT22;7603;49.432;11.418;2023-05-29T01:09:30;11.00;96.20
15013;DHT22;7603;49.432;11.418;2023-05-29T01:12:03;10.90;96.20
15013;DHT22;7603;49.432;11.418;2023-05-29T01:20:27;10.70;96.50
15013;DHT22;7603;49.432;11.418;2023-05-29T01:28:44;10.40;97.40
15013;DHT22;7603;49.432;11.418;2023-05-29T01:31:13;10.20;97.80
15013;DHT22;7603;49.432;11.418;2023-05-29T01:33:40;10.20;98.20
15013;DHT22;7603;49.432;11.418;2023-05-29T01:36:08;10.10;98.40
15013;DHT22;7603;49.432;11.418;2023-05-29T01:38:34;10.00;98.70
15013;DHT22;7603;49.432;11.418;2023-05-29T01:41:00;9.90;99.10
15013;DHT22;7603;49.432;11.418;2023-05-29T01:43:26;9.90;99.30
15013;DHT22;7603;49.432;11.418;2023-05-29T01:45:52;9.90;99.90
15013;DHT22;7603;49.432;11.418;2023-05-29T01:48:18;9.80;99.90
15013;DHT22;7603;49.432;11.418;2023-05-29T01:50:45;9.80;99.90
15013;DHT22;7603;49.432;11.418;2023-05-29T01:53:11;9.60;99.90
15013;DHT22;7603;49.432;11.418;2023-05-29T01:55:37;9.70;99.90
15013;DHT22;7603;49.432;11.418;2023-05-29T01:58:03;9.50;99.90
15013;DHT22;7603;49.432;11.418;2023-05-29T02:00:29;9.50;99.90
15013;DHT22;7603;49.432;11.418;2023-05-29T02:02:55;9.40;99.90
15013;DHT22;7603;49.432;11.418;2023-05-29T02:05:21;9.40;99.90
15013;DHT22;7603;49.432;11.418;2023-05-29T02:07:47;9.30;99.90
15013;DHT22;7603;49.432;11.418;2023-05-29T02:10:12;9.20;99.90
15013;DHT22;7603;49.432;11.418;2023-05-29T02:12:38;9.20;99.90
15013;DHT22;7603;49.432;11.418;2023-05-29T02:15:04;9.10;99.90
15013;DHT22;7603;49.432;11.418;2023-05-29T02:17:29;9.10;99.90
15013;DHT22;7603;49.432;11.418;2023-05-29T02:19:56;9.00;99.90
15013;DHT22;7603;49.432;11.418;2023-05-29T02:22:22;9.00;99.90
15013;DHT22;7603;49.432;11.418;2023-05-29T02:24:47;9.00;99.90
15013;DHT22;7603;49.432;11.418;2023-05-29T02:27:13;8.90;99.90
15013;DHT22;7603;49.432;11.418;2023-05-29T02:29:38;8.90;99.90
15013;DHT22;7603;49.432;11.418;2023-05-29T02:32:04;8.80;99.90
15013;DHT22;7603;49.432;11.418;2023-05-29T02:34:30;8.80;99.90
15013;DHT22;7603;49.432;11.418;2023-05-29T02:36:55;8.70;99.90
15013;DHT22;7603;49.432;11.418;2023-05-29T02:39:22;8.70;99.90
15013;DHT22;7603;49.432;11.418;2023-05-29T02:41:47;8.60;99.90
15013;DHT22;7603;49.432;11.418;2023-05-29T02:44:13;8.50;99.90
15013;DHT22;7603;49.432;11.418;2023-05-29T02:46:39;8.50;99.90
15013;DHT22;7603;49.432;11.418;2023-05-29T02:49:04;8.60;99.90
15013;DHT22;7603;49.432;11.418;2023-05-29T02:51:30;8.50;99.90
15013;DHT22;7603;49.432;11.418;2023-05-29T02:53:57;8.50;99.90
15013;DHT22;7603;49.432;11.418;2023-05-29T02:56:23;8.50;99.90
15013;DHT22;7603;49.432;11.418;2023-05-29T02:58:51;8.40;99.90
15013;DHT22;7603;49.432;11.418;2023-05-29T03:01:17;8.40;99.90
15013;DHT22;7603;49.432;11.418;2023-05-29T03:03:43;8.20;99.90
15013;DHT22;7603;49.432;11.418;2023-05-29T03:06:08;8.30;99.90
15013;DHT22;7603;49.432;11.418;2023-05-29T03:08:35;8.20;99.90
15013;DHT22;7603;49.432;11.418;2023-05-29T03:11:08;8.20;99.90
15013;DHT22;7603;49.432;11.418;2023-05-29T03:13:39;8.20;99.90
15013;DHT22;7603;49.432;11.418;2023-05-29T03:16:05;8.10;99.90
15013;DHT22;7603;49.432;11.418;2023-05-29T03:18:33;8.10;99.90
15013;DHT22;7603;49.432;11.418;2023-05-29T03:20:59;8.00;99.90
15013;DHT22;7603;49.432;11.418;2023-05-29T03:23:24;8.00;99.90
15013;DHT22;7603;49.432;11.418;2023-05-29T03:25:50;8.00;99.90
15013;DHT22;7603;49.432;11.418;2023-05-29T03:28:16;8.00;99.90
15013;DHT22;7603;49.432;11.418;2023-05-29T03:30:41;7.90;99.90
15013;DHT22;7603;49.432;11.418;2023-05-29T03:33:07;8.00;99.90
15013;DHT22;7603;49.432;11.418;2023-05-29T03:35:33;8.00;99.90
15013;DHT22;7603;49.432;11.418;2023-05-29T03:37:58;8.00;99.90
15013;DHT22;7603;49.432;11.418;2023-05-29T03:40:24;8.00;99.90
15013;DHT22;7603;49.432;11.418;2023-05-29T03:42:50;8.00;99.90
15013;DHT22;7603;49.432;11.418;2023-05-29T03:45:16;8.10;99.90
15013;DHT22;7603;49.432;11.418;2023-05-29T03:47:41;8.00;99.90
15013;DHT22;7603;49.432;11.418;2023-05-29T03:50:07;8.10;99.90
15013;DHT22;7603;49.432;11.418;2023-05-29T03:52:33;8.10;99.90
15013;DHT22;7603;49.432;11.418;2023-05-29T03:54:59;8.10;99.90
15013;DHT22;7603;49.432;11.418;2023-05-29T03:57:24;8.20;99.90
15013;DHT22;7603;49.432;11.418;2023-05-29T03:59:51;8.10;99.90
15013;DHT22;7603;49.432;11.418;2023-05-29T04:02:17;8.20;99.90
15013;DHT22;7603;49.432;11.418;2023-05-29T04:04:42;8.10;99.90
15013;DHT22;7603;49.432;11.418;2023-05-29T04:07:08;8.30;99.90
15013;DHT22;7603;49.432;11.418;2023-05-29T04:09:34;8.30;99.90
15013;DHT22;7603;49.432;11.418;2023-05-29T04:12:00;8.40;99.90
15013;DHT22;7603;49.432;11.418;2023-05-29T04:14:28;8.40;99.90
15013;DHT22;7603;49.432;11.418;2023-05-29T04:16:53;8.40;99.90
15013;DHT22;7603;49.432;11.418;2023-05-29T04:19:19;8.50;99.90
15013;DHT22;7603;49.432;11.418;2023-05-29T04:21:46;8.50;99.90
15013;DHT22;7603;49.432;11.418;2023-05-29T04:24:13;8.60;99.90
15013;DHT22;7603;49.432;11.418;2023-05-29T04:26:39;8.60;99.90
15013;DHT22;7603;49.432;11.418;2023-05-29T04:29:09;8.60;99.90
15013;DHT22;7603;49.432;11.418;2023-05-29T04:31:35;8.70;99.90
15013;DHT22;7603;49.432;11.418;2023-05-29T04:34:03;8.70;99.90
15013;DHT22;7603;49.432;11.418;2023-05-29T04:36:30;8.70;99.90
15013;DHT22;7603;49.432;11.418;2023-05-29T04:38:58;8.80;99.90
15013;DHT22;7603;49.432;11.418;2023-05-29T04:41:24;8.90;99.90
15013;DHT22;7603;49.432;11.418;2023-05-29T04:43:55;9.00;99.90
15013;DHT22;7603;49.432;11.418;2023-05-29T04:46:22;9.10;99.90
15013;DHT22;7603;49.432;11.418;2023-05-29T04:48:48;9.10;99.90
15013;DHT22;7603;49.432;11.418;2023-05-29T04:51:13;9.30;99.90
15013;DHT22;7603;49.432;11.418;2023-05-29T04:53:39;9.50;99.90
15013;DHT22;7603;49.432;11.418;2023-05-29T04:56:08;9.50;99.90
15013;DHT22;7603;49.432;11.418;2023-05-29T04:58:35;9.60;99.90
15013;DHT22;7603;49.432;11.418;2023-05-29T05:01:00;9.80;99.90
15013;DHT22;7603;49.432;11.418;2023-05-29T05:03:29;9.90;99.90
15013;DHT22;7603;49.432;11.418;2023-05-29T05:05:56;10.00;99.90
15013;DHT22;7603;49.432;11.418;2023-05-29T05:08:22;10.20;99.90
15013;DHT22;7603;49.432;11.418;2023-05-29T05:10:48;10.30;99.90
15013;DHT22;7603;49.432;11.418;2023-05-29T05:13:13;10.50;99.90
15013;DHT22;7603;49.432;11.418;2023-05-29T05:15:39;10.70;99.90
15013;DHT22;7603;49.432;11.418;2023-05-29T05:18:05;10.90;99.90
15013;DHT22;7603;49.432;11.418;2023-05-29T05:20:30;11.10;99.90
15013;DHT22;7603;49.432;11.418;2023-05-29T05:22:56;11.30;99.90
15013;DHT22;7603;49.432;11.418;2023-05-29T05:25:22;11.50;99.90
15013;DHT22;7603;49.432;11.418;2023-05-29T05:27:48;11.80;99.90
15013;DHT22;7603;49.432;11.418;2023-05-29T05:30:13;12.00;99.90
15013;DHT22;7603;49.432;11.418;2023-05-29T05:32:39;12.30;99.90
15013;DHT22;7603;49.432;11.418;2023-05-29T05:35:05;12.50;99.60
15013;DHT22;7603;49.432;11.418;2023-05-29T05:37:30;12.80;97.70
15013;DHT22;7603;49.432;11.418;2023-05-29T05:39:56;13.00;96.70
15013;DHT22;7603;49.432;11.418;2023-05-29T05:42:23;13.20;95.70
15013;DHT22;7603;49.432;11.418;2023-05-29T05:44:49;13.50;94.20
15013;DHT22;7603;49.432;11.418;2023-05-29T05:47:14;13.60;93.60
15013;DHT22;7603;49.432;11.418;2023-05-29T05:49:40;13.90;92.90
15013;DHT22;7603;49.432;11.418;2023-05-29T05:52:06;14.10;92.10
15013;DHT22;7603;49.432;11.418;2023-05-29T05:54:31;14.30;91.30
15013;DHT22;7603;49.432;11.418;2023-05-29T05:56:57;14.50;89.20
15013;DHT22;7603;49.432;11.418;2023-05-29T05:59:22;14.60;87.90
15013;DHT22;7603;49.432;11.418;2023-05-29T06:01:48;14.80;86.80
15013;DHT22;7603;49.432;11.418;2023-05-29T06:04:13;15.00;84.70
15013;DHT22;7603;49.432;11.418;2023-05-29T06:06:39;15.20;82.40
15013;DHT22;7603;49.432;11.418;2023-05-29T06:09:06;15.30;81.10
15013;DHT22;7603;49.432;11.418;2023-05-29T06:11:32;15.50;79.80
15013;DHT22;7603;49.432;11.418;2023-05-29T06:13:57;15.60;78.90
15013;DHT22;7603;49.432;11.418;2023-05-29T06:16:23;15.80;78.20
15013;DHT22;7603;49.432;11.418;2023-05-29T06:18:49;15.90;77.30
15013;DHT22;7603;49.432;11.418;2023-05-29T06:21:14;16.00;76.70
15013;DHT22;7603;49.432;11.418;2023-05-29T06:23:40;16.20;76.10
15013;DHT22;7603;49.432;11.418;2023-05-29T06:26:07;16.40;75.20
15013;DHT22;7603;49.432;11.418;2023-05-29T06:28:32;16.40;73.50
15013;DHT22;7603;49.432;11.418;2023-05-29T06:30:58;16.70;72.20
15013;DHT22;7603;49.432;11.418;2023-05-29T06:33:24;17.00;75.20
15013;DHT22;7603;49.432;11.418;2023-05-29T06:35:49;17.30;74.00
15013;DHT22;7603;49.432;11.418;2023-05-29T06:38:15;17.70;72.90
15013;DHT22;7603;49.432;11.418;2023-05-29T06:40:41;18.20;71.30
15013;DHT22;7603;49.432;11.418;2023-05-29T06:43:07;18.60;68.80
15013;DHT22;7603;49.432;11.418;2023-05-29T06:45:34;19.00;66.60
15013;DHT22;7603;49.432;11.418;2023-05-29T06:48:00;19.40;64.90
15013;DHT22;7603;49.432;11.418;2023-05-29T06:50:26;19.70;64.00
15013;DHT22;7603;49.432;11.418;2023-05-29T06:52:51;20.00;61.80
15013;DHT22;7603;49.432;11.418;2023-05-29T06:55:17;20.10;60.80
15013;DHT22;7603;49.432;11.418;2023-05-29T06:57:42;20.40;59.90
15013;DHT22;7603;49.432;11.418;2023-05-29T07:00:08;20.40;58.80
15013;DHT22;7603;49.432;11.418;2023-05-29T07:02:36;20.60;58.20
15013;DHT22;7603;49.432;11.418;2023-05-29T07:05:02;20.70;57.90
15013;DHT22;7603;49.432;11.418;2023-05-29T07:07:27;20.80;57.50
15013;DHT22;7603;49.432;11.418;2023-05-29T07:09:53;20.90;56.90
15013;DHT22;7603;49.432;11.418;2023-05-29T07:12:18;21.00;56.10
15013;DHT22;7603;49.432;11.418;2023-05-29T07:14:44;21.10;56.10
15013;DHT22;7603;49.432;11.418;2023-05-29T07:17:12;21.20;55.80
15013;DHT22;7603;49.432;11.418;2023-05-29T07:19:37;21.30;55.20
15013;DHT22;7603;49.432;11.418;2023-05-29T07:22:03;21.50;54.50
15013;DHT22;7603;49.432;11.418;2023-05-29T07:24:28;21.70;54.30
15013;DHT22;7603;49.432;11.418;2023-05-29T07:26:54;21.80;54.00
15013;DHT22;7603;49.432;11.418;2023-05-29T07:29:20;21.90;53.30
15013;DHT22;7603;49.432;11.418;2023-05-29T07:31:49;21.90;53.10
15013;DHT22;7603;49.432;11.418;2023-05-29T07:34:14;22.00;52.90
15013;DHT22;7603;49.432;11.418;2023-05-29T07:36:57;22.00;52.70
15013;DHT22;7603;49.432;11.418;2023-05-29T07:39:23;22.00;52.40
15013;DHT22;7603;49.432;11.418;2023-05-29T07:41:49;22.00;52.10
15013;DHT22;7603;49.432;11.418;2023-05-29T07:44:15;22.00;51.50
15013;DHT22;7603;49.432;11.418;2023-05-29T07:46:40;22.10;51.40
15013;DHT22;7603;49.432;11.418;2023-05-29T07:49:06;22.10;50.90
15013;DHT22;7603;49.432;11.418;2023-05-29T07:51:31;22.20;50.40
15013;DHT22;7603;49.432;11.418;2023-05-29T07:53:57;22.30;50.40
15013;DHT22;7603;49.432;11.418;2023-05-29T07:56:23;22.40;49.70
15013;DHT22;7603;49.432;11.418;2023-05-29T07:58:48;22.50;49.90
15013;DHT22;7603;49.432;11.418;2023-05-29T08:01:14;22.60;49.00
15013;DHT22;7603;49.432;11.418;2023-05-29T08:03:41;22.70;48.70
15013;DHT22;7603;49.432;11.418;2023-05-29T08:06:07;22.80;49.00
15013;DHT22;7603;49.432;11.418;2023-05-29T08:08:33;22.80;47.20
15013;DHT22;7603;49.432;11.418;2023-05-29T08:10:58;22.90;46.30
15013;DHT22;7603;49.432;11.418;2023-05-29T08:13:24;22.90;46.50
15013;DHT22;7603;49.432;11.418;2023-05-29T08:15:49;22.90;44.60
15013;DHT22;7603;49.432;11.418;2023-05-29T08:18:15;23.00;44.90
15013;DHT22;7603;49.432;11.418;2023-05-29T08:20:40;23.00;44.10
15013;DHT22;7603;49.432;11.418;2023-05-29T08:23:08;23.00;42.50
15013;DHT22;7603;49.432;11.418;2023-05-29T08:25:33;23.00;43.30
15013;DHT22;7603;49.432;11.418;2023-05-29T08:27:59;23.10;42.40
15013;DHT22;7603;49.432;11.418;2023-05-29T08:30:25;23.10;41.60
15013;DHT22;7603;49.432;11.418;2023-05-29T08:32:51;23.20;42.10
15013;DHT22;7603;49.432;11.418;2023-05-29T08:35:16;23.20;42.20
15013;DHT22;7603;49.432;11.418;2023-05-29T08:37:42;23.30;42.00
15013;DHT22;7603;49.432;11.418;2023-05-29T08:40:08;23.40;42.30
15013;DHT22;7603;49.432;11.418;2023-05-29T08:42:39;23.50;41.70
15013;DHT22;7603;49.432;11.418;2023-05-29T08:45:07;23.60;42.10
15013;DHT22;7603;49.432;11.418;2023-05-29T08:47:34;23.70;41.30
15013;DHT22;7603;49.432;11.418;2023-05-29T08:50:00;23.80;39.80
15013;DHT22;7603;49.432;11.418;2023-05-29T08:52:27;23.90;40.20
15013;DHT22;7603;49.432;11.418;2023-05-29T08:54:55;24.00;40.60
15013;DHT22;7603;49.432;11.418;2023-05-29T08:57:22;24.00;40.00
15013;DHT22;7603;49.432;11.418;2023-05-29T08:59:50;24.00;40.30
15013;DHT22;7603;49.432;11.418;2023-05-29T09:02:17;24.10;40.40
15013;DHT22;7603;49.432;11.418;2023-05-29T09:04:43;24.10;40.50
15013;DHT22;7603;49.432;11.418;2023-05-29T09:07:14;24.30;39.30
15013;DHT22;7603;49.432;11.418;2023-05-29T09:09:40;24.40;39.50
15013;DHT22;7603;49.432;11.418;2023-05-29T09:12:06;24.50;39.90
15013;DHT22;7603;49.432;11.418;2023-05-29T09:14:36;24.70;39.40
15013;DHT22;7603;49.432;11.418;2023-05-29T09:17:03;25.00;39.00
15013;DHT22;7603;49.432;11.418;2023-05-29T09:19:29;25.30;38.80
15013;DHT22;7603;49.432;11.418;2023-05-29T09:22:03;25.40;38.00
15013;DHT22;7603;49.432;11.418;2023-05-29T09:24:30;25.60;37.60
15013;DHT22;7603;49.432;11.418;2023-05-29T09:26:59;25.70;37.50
15013;DHT22;7603;49.432;11.418;2023-05-29T09:29:25;25.80;37.10
15013;DHT22;7603;49.432;11.418;2023-05-29T09:31:51;25.90;36.20
15013;DHT22;7603;49.432;11.418;2023-05-29T09:34:16;25.80;36.80
15013;DHT22;7603;49.432;11.418;2023-05-29T09:36:42;25.80;36.60
15013;DHT22;7603;49.432;11.418;2023-05-29T09:39:07;25.80;36.80
15013;DHT22;7603;49.432;11.418;2023-05-29T09:41:43;25.90;35.20
15013;DHT22;7603;49.432;11.418;2023-05-29T09:44:12;26.00;35.30
15013;DHT22;7603;49.432;11.418;2023-05-29T09:46:39;26.30;35.80
15013;DHT22;7603;49.432;11.418;2023-05-29T09:49:12;26.40;34.40
15013;DHT22;7603;49.432;11.418;2023-05-29T09:51:39;26.50;35.40
15013;DHT22;7603;49.432;11.418;2023-05-29T09:54:17;26.50;34.60
15013;DHT22;7603;49.432;11.418;2023-05-29T09:56:44;26.60;33.90
15013;DHT22;7603;49.432;11.418;2023-05-29T09:59:14;26.60;34.90
15013;DHT22;7603;49.432;11.418;2023-05-29T10:01:42;26.60;35.40
15013;DHT22;7603;49.432;11.418;2023-05-29T10:04:12;26.70;34.80
15013;DHT22;7603;49.432;11.418;2023-05-29T10:06:41;26.70;34.40
15013;DHT22;7603;49.432;11.418;2023-05-29T10:09:12;26.90;34.60
15013;DHT22;7603;49.432;11.418;2023-05-29T10:11:42;26.90;34.40
15013;DHT22;7603;49.432;11.418;2023-05-29T10:14:10;26.90;34.60
15013;DHT22;7603;49.432;11.418;2023-05-29T10:16:42;26.90;34.60
15013;DHT22;7603;49.432;11.418;2023-05-29T10:19:12;27.00;34.70
15013;DHT22;7603;49.432;11.418;2023-05-29T10:21:40;27.20;34.90
15013;DHT22;7603;49.432;11.418;2023-05-29T10:24:07;27.30;34.60
15013;DHT22;7603;49.432;11.418;2023-05-29T10:26:39;27.50;34.80
15013;DHT22;7603;49.432;11.418;2023-05-29T10:37:23;29.90;32.30
15013;DHT22;7603;49.432;11.418;2023-05-29T10:39:51;31.00;30.20
15013;DHT22;7603;49.432;11.418;2023-05-29T10:45:04;33.40;27.70
15013;DHT22;7603;49.432;11.418;2023-05-29T10:47:30;34.10;27.70
15013;DHT22;7603;49.432;11.418;2023-05-29T10:50:00;35.10;27.20
15013;DHT22;7603;49.432;11.418;2023-05-29T10:52:26;36.30;26.20
15013;DHT22;7603;49.432;11.418;2023-05-29T10:54:55;37.70;25.40
15013;DHT22;7603;49.432;11.418;2023-05-29T10:57:23;38.90;24.50
15013;DHT22;7603;49.432;11.418;2023-05-29T10:59:57;39.60;23.60
15013;DHT22;7603;49.432;11.418;2023-05-29T11:02:23;40.10;23.20
15013;DHT22;7603;49.432;11.418;2023-05-29T11:05:18;40.70;22.80
15013;DHT22;7603;49.432;11.418;2023-05-29T11:08:00;41.10;22.00
15013;DHT22;7603;49.432;11.418;2023-05-29T11:13:35;42.70;20.60
15013;DHT22;7603;49.432;11.418;2023-05-29T11:16:19;43.20;20.50
15013;DHT22;7603;49.432;11.418;2023-05-29T11:18:47;43.30;20.30
15013;DHT22;7603;49.432;11.418;2023-05-29T11:24:06;43.50;20.00
15013;DHT22;7603;49.432;11.418;2023-05-29T11:26:33;43.50;20.10
15013;DHT22;7603;49.432;11.418;2023-05-29T11:29:00;43.20;20.50
15013;DHT22;7603;49.432;11.418;2023-05-29T11:31:28;43.50;19.90
15013;DHT22;7603;49.432;11.418;2023-05-29T11:33:59;43.70;19.60
15013;DHT22;7603;49.432;11.418;2023-05-29T11:36:26;44.50;19.60
15013;DHT22;7603;49.432;11.418;2023-05-29T11:38:52;45.20;19.60
15013;DHT22;7603;49.432;11.418;2023-05-29T11:41:18;45.80;18.70
15013;DHT22;7603;49.432;11.418;2023-05-29T11:43:44;46.00;18.10
15013;DHT22;7603;49.432;11.418;2023-05-29T11:46:18;46.20;18.10
15013;DHT22;7603;49.432;11.418;2023-05-29T11:48:47;46.50;17.70
15013;DHT22;7603;49.432;11.418;2023-05-29T11:51:13;46.70;17.20
15013;DHT22;7603;49.432;11.418;2023-05-29T11:53:42;47.00;17.20
15013;DHT22;7603;49.432;11.418;2023-05-29T11:56:09;47.50;17.00
15013;DHT22;7603;49.432;11.418;2023-05-29T11:58:37;47.80;16.30
15013;DHT22;7603;49.432;11.418;2023-05-29T12:01:03;48.10;16.40
15013;DHT22;7603;49.432;11.418;2023-05-29T12:03:29;48.10;16.30
15013;DHT22;7603;49.432;11.418;2023-05-29T12:05:54;48.00;16.60
15013;DHT22;7603;49.432;11.418;2023-05-29T12:08:24;47.90;16.20
15013;DHT22;7603;49.432;11.418;2023-05-29T12:10:52;48.00;16.10
15013;DHT22;7603;49.432;11.418;2023-05-29T12:13:21;48.30;16.00
15013;DHT22;7603;49.432;11.418;2023-05-29T12:15:49;48.90;15.90
15013;DHT22;7603;49.432;11.418;2023-05-29T12:18:15;49.40;15.50
15013;DHT22;7603;49.432;11.418;2023-05-29T12:20:41;49.50;15.20
15013;DHT22;7603;49.432;11.418;2023-05-29T12:23:07;49.70;15.10
15013;DHT22;7603;49.432;11.418;2023-05-29T12:25:34;49.50;15.10
15013;DHT22;7603;49.432;11.418;2023-05-29T12:28:02;49.60;15.20
15013;DHT22;7603;49.432;11.418;2023-05-29T12:30:28;50.00;15.10
15013;DHT22;7603;49.432;11.418;2023-05-29T12:32:54;50.30;14.90
15013;DHT22;7603;49.432;11.418;2023-05-29T12:35:23;50.00;14.90
15013;DHT22;7603;49.432;11.418;2023-05-29T12:37:54;49.10;14.60
15013;DHT22;7603;49.432;11.418;2023-05-29T12:40:22;48.90;15.20
15013;DHT22;7603;49.432;11.418;2023-05-29T12:42:53;49.00;15.00
15013;DHT22;7603;49.432;11.418;2023-05-29T12:45:19;49.40;14.80
15013;DHT22;7603;49.432;11.418;2023-05-29T12:47:46;49.70;14.70
15013;DHT22;7603;49.432;11.418;2023-05-29T12:50:28;49.90;15.00
15013;DHT22;7603;49.432;11.418;2023-05-29T12:53:06;50.50;14.60
15013;DHT22;7603;49.432;11.418;2023-05-29T12:55:40;50.80;15.40
15013;DHT22;7603;49.432;11.418;2023-05-29T12:58:10;51.00;15.00
15013;DHT22;7603;49.432;11.418;2023-05-29T13:00:37;51.00;14.30
15013;DHT22;7603;49.432;11.418;2023-05-29T13:03:04;51.30;14.80
15013;DHT22;7603;49.432;11.418;2023-05-29T13:05:30;51.70;14.40
15013;DHT22;7603;49.432;11.418;2023-05-29T13:07:56;52.10;14.50
15013;DHT22;7603;49.432;11.418;2023-05-29T13:10:25;52.30;14.00
15013;DHT22;7603;49.432;11.418;2023-05-29T13:12:51;52.20;13.90
15013;DHT22;7603;49.432;11.418;2023-05-29T13:15:20;52.20;14.20
15013;DHT22;7603;49.432;11.418;2023-05-29T13:17:46;52.50;14.20
15013;DHT22;7603;49.432;11.418;2023-05-29T13:20:13;52.60;14.00
15013;DHT22;7603;49.432;11.418;2023-05-29T13:22:40;52.40;14.10
15013;DHT22;7603;49.432;11.418;2023-05-29T13:25:06;52.60;14.00
15013;DHT22;7603;49.432;11.418;2023-05-29T13:27:33;52.80;14.10
15013;DHT22;7603;49.432;11.418;2023-05-29T13:30:00;53.20;14.10
15013;DHT22;7603;49.432;11.418;2023-05-29T13:32:26;53.90;13.70
15013;DHT22;7603;49.432;11.418;2023-05-29T13:34:51;54.30;13.50
15013;DHT22;7603;49.432;11.418;2023-05-29T13:37:17;53.80;13.00
15013;DHT22;7603;49.432;11.418;2023-05-29T13:39:42;53.50;13.10
15013;DHT22;7603;49.432;11.418;2023-05-29T13:42:08;53.30;13.20
15013;DHT22;7603;49.432;11.418;2023-05-29T13:44:34;53.20;13.20
15013;DHT22;7603;49.432;11.418;2023-05-29T13:46:59;53.00;13.30
15013;DHT22;7603;49.432;11.418;2023-05-29T13:49:26;52.40;13.40
15013;DHT22;7603;49.432;11.418;2023-05-29T13:51:51;52.30;14.00
15013;DHT22;7603;49.432;11.418;2023-05-29T13:54:17;51.70;13.70
15013;DHT22;7603;49.432;11.418;2023-05-29T13:56:43;51.70;13.80
15013;DHT22;7603;49.432;11.418;2023-05-29T13:59:09;51.80;13.90
15013;DHT22;7603;49.432;11.418;2023-05-29T14:01:35;52.00;13.80
15013;DHT22;7603;49.432;11.418;2023-05-29T14:04:00;52.40;13.80
15013;DHT22;7603;49.432;11.418;2023-05-29T14:06:26;52.60;13.70
15013;DHT22;7603;49.432;11.418;2023-05-29T14:08:52;52.70;13.40
15013;DHT22;7603;49.432;11.418;2023-05-29T14:11:18;52.90;13.50
15013;DHT22;7603;49.432;11.418;2023-05-29T14:13:44;53.00;13.30
15013;DHT22;7603;49.432;11.418;2023-05-29T14:16:09;53.20;13.20
15013;DHT22;7603;49.432;11.418;2023-05-29T14:18:35;53.50;13.30
15013;DHT22;7603;49.432;11.418;2023-05-29T14:21:00;53.20;13.10
15013;DHT22;7603;49.432;11.418;2023-05-29T14:23:26;53.30;13.50
15013;DHT22;7603;49.432;11.418;2023-05-29T14:25:51;53.40;13.30
15013;DHT22;7603;49.432;11.418;2023-05-29T14:28:17;53.50;13.40
15013;DHT22;7603;49.432;11.418;2023-05-29T14:30:43;53.60;13.60
15013;DHT22;7603;49.432;11.418;2023-05-29T14:33:09;53.80;13.70
15013;DHT22;7603;49.432;11.418;2023-05-29T14:35:34;53.90;13.30
15013;DHT22;7603;49.432;11.418;2023-05-29T14:38:00;54.20;13.80
15013;DHT22;7603;49.432;11.418;2023-05-29T14:40:26;54.30;13.30
15013;DHT22;7603;49.432;11.418;2023-05-29T14:42:51;54.20;13.50
15013;DHT22;7603;49.432;11.418;2023-05-29T14:45:17;54.10;13.30
15013;DHT22;7603;49.432;11.418;2023-05-29T14:47:43;54.20;13.30
15013;DHT22;7603;49.432;11.418;2023-05-29T14:50:09;54.50;13.20
15013;DHT22;7603;49.432;11.418;2023-05-29T14:52:34;54.90;13.10
15013;DHT22;7603;49.432;11.418;2023-05-29T14:55:06;55.20;13.10
15013;DHT22;7603;49.432;11.418;2023-05-29T14:57:32;55.10;13.00
15013;DHT22;7603;49.432;11.418;2023-05-29T15:00:03;54.80;13.10
15013;DHT22;7603;49.432;11.418;2023-05-29T15:02:31;54.60;13.00
15013;DHT22;7603;49.432;11.418;2023-05-29T15:04:57;54.40;13.10
15013;DHT22;7603;49.432;11.418;2023-05-29T15:07:23;54.40;13.20
15013;DHT22;7603;49.432;11.418;2023-05-29T15:09:48;54.60;13.30
15013;DHT22;7603;49.432;11.418;2023-05-29T15:12:14;54.50;13.30
15013;DHT22;7603;49.432;11.418;2023-05-29T15:14:39;54.50;13.00
15013;DHT22;7603;49.432;11.418;2023-05-29T15:17:05;54.90;13.10
15013;DHT22;7603;49.432;11.418;2023-05-29T15:19:30;55.50;13.20
15013;DHT22;7603;49.432;11.418;2023-05-29T15:21:57;56.10;12.90
15013;DHT22;7603;49.432;11.418;2023-05-29T15:24:23;56.40;12.90
15013;DHT22;7603;49.432;11.418;2023-05-29T15:26:48;56.20;12.90
15013;DHT22;7603;49.432;11.418;2023-05-29T15:29:15;56.00;12.80
15013;DHT22;7603;49.432;11.418;2023-05-29T15:31:40;55.80;12.70
15013;DHT22;7603;49.432;11.418;2023-05-29T15:34:06;55.70;12.80
15013;DHT22;7603;49.432;11.418;2023-05-29T15:36:32;55.50;12.80
15013;DHT22;7603;49.432;11.418;2023-05-29T15:38:58;55.20;13.00
15013;DHT22;7603;49.432;11.418;2023-05-29T15:41:24;54.90;13.20
15013;DHT22;7603;49.432;11.418;2023-05-29T15:43:54;54.50;13.20
15013;DHT22;7603;49.432;11.418;2023-05-29T15:46:20;54.30;13.20
15013;DHT22;7603;49.432;11.418;2023-05-29T15:48:46;54.50;13.30
15013;DHT22;7603;49.432;11.418;2023-05-29T15:51:11;54.60;13.40
15013;DHT22;7603;49.432;11.418;2023-05-29T15:53:38;54.60;13.30
15013;DHT22;7603;49.432;11.418;2023-05-29T15:56:03;54.70;13.10
15013;DHT22;7603;49.432;11.418;2023-05-29T15:58:29;54.90;12.90
15013;DHT22;7603;49.432;11.418;2023-05-29T16:00:55;54.60;13.00